createdAt,value
2017-10-18T20:51:47.587Z,18.80
2017-10-18T20:54:15.124Z,18.90
2017-10-18T20:56:42.704Z,18.90
2017-10-18T20:59:10.262Z,19.00
2017-10-18T21:01:37.804Z,19.10
2017-10-18T21:04:05.401Z,19.10
2017-10-18T21:06:33.043Z,19.20
2017-10-18T21:09:00.583Z,19.20
2017-10-18T21:11:28.159Z,19.30
2017-10-18T21:13:55.666Z,19.30
2017-10-18T21:39:04.455Z,19.60
2017-10-18T21:41:32.779Z,19.60
2017-10-18T21:44:01.600Z,19.60
2017-10-18T21:46:30.372Z,19.60
2017-10-18T21:48:57.906Z,19.60
2017-10-18T22:05:19.428Z,19.60
2017-10-18T22:07:47.241Z,19.60
2017-10-18T22:22:29.788Z,19.60
2017-10-18T22:24:57.360Z,19.70
2017-10-18T22:27:24.906Z,19.70
2017-10-18T22:29:52.469Z,19.70
2017-10-18T22:32:19.974Z,19.70
2017-10-18T22:34:47.474Z,19.70
2017-10-18T22:37:15.039Z,19.70
2017-10-18T22:39:42.571Z,19.60
2017-10-18T22:42:10.847Z,19.60
2017-10-18T22:44:39.174Z,19.60
2017-10-18T22:47:06.716Z,19.60
2017-10-18T22:49:34.223Z,19.60
2017-10-18T22:52:01.792Z,19.60
2017-10-18T22:54:30.095Z,19.60
2017-10-18T22:56:57.602Z,19.50
2017-10-18T22:59:25.130Z,19.60
2017-10-18T23:01:52.630Z,19.60
2017-10-18T23:04:20.146Z,19.60
2017-10-18T23:06:47.699Z,19.60
2017-10-18T23:09:15.232Z,19.60
2017-10-18T23:11:43.957Z,19.60
2017-10-18T23:14:11.503Z,19.50
2017-10-18T23:16:39.030Z,19.60
2017-10-18T23:19:06.535Z,19.50
2017-10-18T23:21:34.079Z,19.50
2017-10-18T23:24:01.586Z,19.50
2017-10-18T23:26:29.086Z,19.50
2017-10-18T23:28:57.392Z,19.60
2017-10-18T23:31:24.908Z,19.50
2017-10-18T23:33:53.211Z,19.50
2017-10-18T23:36:20.738Z,19.50
2017-10-18T23:38:48.267Z,19.50
2017-10-18T23:41:15.801Z,19.50
2017-10-18T23:43:43.387Z,19.50
2017-10-18T23:46:10.914Z,19.50
2017-10-18T23:48:38.415Z,19.50
2017-10-18T23:51:05.962Z,19.50
2017-10-18T23:53:33.467Z,19.50
2017-10-18T23:56:01.734Z,19.50
2017-10-18T23:58:29.271Z,19.50
